Time;durP1;ratioP1;P1;durP2;ratioP2;P2;SDS_P1;SDS_P2;PMS_P1;PMS_P2;Temp;Humidity;BMP_temperature;BMP_pressure;BME280_temperature;BME280_humidity;BME280_pressure;Samples;Min_cycle;Max_cycle;Signal;HPM_P1;HPM_P2
2021/10/14 00:00:10;;;;;;;;;;;12.40;99.90;;;;;;5136637;27;19927;-78
2021/10/14 00:02:40;;;;;;;;;;;12.40;99.90;;;;;;5102848;28;19923;-78
2021/10/14 00:05:08;;;;;;;;;;;12.40;99.90;;;;;;5115810;28;19924;-79
2021/10/14 00:07:38;;;;;;;;;;;12.40;99.90;;;;;;5116145;28;19947;-79
2021/10/14 00:10:06;;;;;;;;;;;12.40;99.90;;;;;;5116214;28;19924;-79
2021/10/14 00:12:34;;;;;;;;;;;12.40;99.90;;;;;;5116090;28;19934;-80
2021/10/14 00:15:02;;;;;;;;;;;12.40;99.90;;;;;;5116088;28;19928;-80
2021/10/14 00:17:30;;;;;;;;;;;12.40;99.90;;;;;;5116057;28;19924;-77
2021/10/14 00:19:59;;;;;;;;;;;12.40;99.90;;;;;;5115551;28;19934;-78
2021/10/14 00:22:26;;;;;;;;;;;12.40;99.90;;;;;;5116005;28;19958;-78
2021/10/14 00:24:52;;;;;;;;;;;12.40;99.90;;;;;;5115648;28;20371;-81
2021/10/14 00:27:19;;;;;;;;;;;12.30;99.90;;;;;;5114950;28;19984;-78
2021/10/14 00:29:46;;;;;;;;;;;12.40;99.90;;;;;;5115017;28;19934;-80
2021/10/14 00:32:13;;;;;;;;;;;12.30;99.90;;;;;;5115729;28;19946;-79
2021/10/14 00:34:40;;;;;;;;;;;12.30;99.90;;;;;;5115803;28;20352;-78
2021/10/14 00:37:08;;;;;;;;;;;12.40;99.90;;;;;;5115574;28;19924;-80
2021/10/14 00:39:35;;;;;;;;;;;12.30;99.90;;;;;;5115865;28;19934;-80
2021/10/14 00:42:02;;;;;;;;;;;12.40;99.90;;;;;;5115637;28;19927;-79
2021/10/14 00:44:28;;;;;;;;;;;12.30;99.90;;;;;;5115480;28;20367;-79
2021/10/14 00:46:56;;;;;;;;;;;12.40;99.90;;;;;;5115674;28;19924;-80
2021/10/14 00:49:22;;;;;;;;;;;12.40;99.90;;;;;;5115555;28;19934;-79
2021/10/14 00:51:49;;;;;;;;;;;12.30;99.90;;;;;;5115414;28;19924;-79
2021/10/14 00:54:19;;;;;;;;;;;12.30;99.90;;;;;;5115279;28;19964;-80
2021/10/14 00:56:47;;;;;;;;;;;12.30;99.90;;;;;;5115708;28;19923;-79
2021/10/14 00:59:15;;;;;;;;;;;12.40;99.90;;;;;;5115564;28;19923;-79
2021/10/14 01:01:43;;;;;;;;;;;12.30;99.90;;;;;;5102895;28;19928;-79
2021/10/14 01:04:12;;;;;;;;;;;12.30;99.90;;;;;;5095004;28;20332;-78
2021/10/14 01:06:40;;;;;;;;;;;12.40;99.90;;;;;;5095029;28;20136;-78
2021/10/14 01:09:08;;;;;;;;;;;12.30;99.90;;;;;;5095101;28;19924;-79
2021/10/14 01:11:37;;;;;;;;;;;12.30;99.90;;;;;;5094982;28;19966;-79
2021/10/14 01:14:06;;;;;;;;;;;12.30;99.90;;;;;;5094832;28;20026;-81
2021/10/14 01:16:37;;;;;;;;;;;12.30;99.90;;;;;;5094750;28;20359;-79
2021/10/14 01:19:05;;;;;;;;;;;12.30;99.90;;;;;;5094610;28;20324;-79
2021/10/14 01:21:35;;;;;;;;;;;12.30;99.90;;;;;;5094849;28;19928;-79
2021/10/14 01:24:06;;;;;;;;;;;12.40;99.90;;;;;;5094747;28;20352;-79
2021/10/14 01:26:34;;;;;;;;;;;12.30;99.90;;;;;;5094894;28;19924;-79
2021/10/14 01:29:03;;;;;;;;;;;12.30;99.90;;;;;;5094748;28;19929;-79
2021/10/14 01:31:31;;;;;;;;;;;12.30;99.90;;;;;;5094876;28;19924;-79
2021/10/14 01:33:58;;;;;;;;;;;12.40;99.90;;;;;;5094944;28;19935;-81
2021/10/14 01:36:25;;;;;;;;;;;12.40;99.90;;;;;;5094863;28;20303;-80
2021/10/14 01:38:54;;;;;;;;;;;12.30;99.90;;;;;;5094750;28;19935;-80
2021/10/14 01:41:21;;;;;;;;;;;12.30;99.90;;;;;;5096968;28;19924;-79
2021/10/14 01:43:48;;;;;;;;;;;12.30;99.90;;;;;;5098510;28;19924;-80
2021/10/14 01:46:15;;;;;;;;;;;12.30;99.90;;;;;;5098219;28;20244;-79
2021/10/14 01:48:42;;;;;;;;;;;12.30;99.90;;;;;;5098396;28;19924;-79
2021/10/14 01:51:09;;;;;;;;;;;12.30;99.90;;;;;;5098199;28;20273;-79
2021/10/14 01:53:36;;;;;;;;;;;12.30;99.90;;;;;;5097810;28;20009;-78
2021/10/14 01:56:04;;;;;;;;;;;12.30;99.90;;;;;;5098273;28;19924;-79
2021/10/14 01:58:31;;;;;;;;;;;12.30;99.90;;;;;;5098010;28;19924;-79
2021/10/14 02:00:58;;;;;;;;;;;12.30;99.90;;;;;;5097929;28;20346;-79
2021/10/14 02:03:25;;;;;;;;;;;12.30;99.90;;;;;;5098017;28;19924;-79
2021/10/14 02:05:52;;;;;;;;;;;12.30;99.90;;;;;;5098065;28;19924;-80
2021/10/14 02:08:18;;;;;;;;;;;12.30;99.90;;;;;;5097980;28;19924;-79
2021/10/14 02:10:45;;;;;;;;;;;12.30;99.90;;;;;;5097832;28;20398;-79
2021/10/14 02:13:13;;;;;;;;;;;12.30;99.90;;;;;;5097813;28;19928;-80
2021/10/14 02:15:40;;;;;;;;;;;12.30;99.90;;;;;;5098077;28;19928;-80
2021/10/14 02:18:07;;;;;;;;;;;12.30;99.90;;;;;;5097637;28;20355;-79
2021/10/14 02:20:34;;;;;;;;;;;12.20;99.90;;;;;;5097709;28;19930;-79
2021/10/14 02:23:01;;;;;;;;;;;12.20;99.90;;;;;;5097519;28;19942;-80
2021/10/14 02:25:28;;;;;;;;;;;12.20;99.90;;;;;;5097568;28;19924;-78
2021/10/14 02:27:55;;;;;;;;;;;12.20;99.90;;;;;;5097511;28;20440;-80
2021/10/14 02:30:36;;;;;;;;;;;12.20;99.90;;;;;;5097203;28;19934;-80
2021/10/14 02:33:06;;;;;;;;;;;12.20;99.90;;;;;;5097611;28;19942;-79
2021/10/14 02:35:34;;;;;;;;;;;12.20;99.90;;;;;;5097389;28;19935;-79
2021/10/14 02:38:02;;;;;;;;;;;12.20;99.90;;;;;;5097585;28;19924;-80
2021/10/14 02:40:33;;;;;;;;;;;12.20;99.90;;;;;;5097137;28;19930;-79
2021/10/14 02:43:02;;;;;;;;;;;12.20;99.90;;;;;;5097458;28;19985;-79
2021/10/14 02:45:31;;;;;;;;;;;12.20;99.90;;;;;;5097377;28;19947;-79
2021/10/14 02:48:00;;;;;;;;;;;12.10;99.90;;;;;;5097147;28;20374;-79
2021/10/14 02:50:28;;;;;;;;;;;12.20;99.90;;;;;;5097246;28;19934;-80
2021/10/14 02:52:55;;;;;;;;;;;12.10;99.90;;;;;;5096039;28;19935;-80
2021/10/14 02:55:23;;;;;;;;;;;12.10;99.90;;;;;;5097278;28;19924;-79
2021/10/14 02:57:52;;;;;;;;;;;12.10;99.90;;;;;;5097119;28;19935;-80
2021/10/14 03:00:20;;;;;;;;;;;12.10;99.90;;;;;;5096874;28;20351;-79
2021/10/14 03:02:53;;;;;;;;;;;12.10;99.90;;;;;;5096891;28;20372;-79
2021/10/14 03:05:21;;;;;;;;;;;12.10;99.90;;;;;;5096837;28;19927;-80
2021/10/14 03:07:49;;;;;;;;;;;12.20;99.90;;;;;;5096661;28;19924;-79
2021/10/14 03:10:17;;;;;;;;;;;12.20;99.90;;;;;;5096766;28;20340;-79
2021/10/14 03:12:47;;;;;;;;;;;12.20;99.90;;;;;;5096767;28;19924;-79
2021/10/14 03:15:15;;;;;;;;;;;12.20;99.90;;;;;;5096648;28;19924;-80
2021/10/14 03:17:45;;;;;;;;;;;12.20;99.90;;;;;;5096501;28;20255;-79
2021/10/14 03:20:14;;;;;;;;;;;12.20;99.90;;;;;;5096101;28;20024;-79
2021/10/14 03:22:43;;;;;;;;;;;12.20;99.90;;;;;;5096495;28;19924;-79
2021/10/14 03:25:11;;;;;;;;;;;12.20;99.90;;;;;;5096523;28;20351;-79
2021/10/14 03:27:41;;;;;;;;;;;12.10;99.90;;;;;;5096368;28;19924;-80
2021/10/14 03:30:09;;;;;;;;;;;12.20;99.90;;;;;;5096567;28;19935;-79
2021/10/14 03:32:37;;;;;;;;;;;12.10;99.90;;;;;;5096111;28;19931;-79
2021/10/14 03:35:05;;;;;;;;;;;12.10;99.90;;;;;;5096250;28;19924;-80
2021/10/14 03:37:35;;;;;;;;;;;12.10;99.90;;;;;;5096276;28;19946;-79
2021/10/14 03:40:02;;;;;;;;;;;12.10;99.90;;;;;;5096110;28;19928;-79
2021/10/14 03:42:30;;;;;;;;;;;12.10;99.90;;;;;;5096024;28;19960;-79
2021/10/14 03:44:58;;;;;;;;;;;12.20;99.90;;;;;;5096077;28;20271;-78
2021/10/14 03:47:25;;;;;;;;;;;12.20;99.90;;;;;;5096275;28;19924;-78
2021/10/14 03:49:52;;;;;;;;;;;12.10;99.90;;;;;;5096120;28;19924;-80
2021/10/14 03:52:19;;;;;;;;;;;12.20;99.90;;;;;;5096129;28;19934;-80
2021/10/14 03:54:48;;;;;;;;;;;12.20;99.90;;;;;;5095801;28;20279;-79
2021/10/14 03:57:16;;;;;;;;;;;12.10;99.90;;;;;;5095994;28;19924;-80
2021/10/14 03:59:45;;;;;;;;;;;12.10;99.90;;;;;;5095680;28;19924;-79
2021/10/14 04:02:13;;;;;;;;;;;12.20;99.90;;;;;;5096008;28;20263;-82
2021/10/14 04:04:41;;;;;;;;;;;12.20;99.90;;;;;;5095703;28;19925;-79
2021/10/14 04:07:08;;;;;;;;;;;12.10;99.90;;;;;;5095839;28;19930;-80
2021/10/14 04:09:35;;;;;;;;;;;12.20;99.90;;;;;;5095730;28;19924;-82
2021/10/14 04:12:03;;;;;;;;;;;12.10;99.90;;;;;;5095611;28;19950;-80
2021/10/14 04:14:30;;;;;;;;;;;12.20;99.90;;;;;;5095720;28;19924;-79
2021/10/14 04:16:57;;;;;;;;;;;12.20;99.90;;;;;;5095446;28;19924;-79
2021/10/14 04:19:24;;;;;;;;;;;12.10;99.90;;;;;;5095365;28;19924;-79
2021/10/14 04:21:50;;;;;;;;;;;12.20;99.90;;;;;;5094820;28;19928;-79
2021/10/14 04:24:18;;;;;;;;;;;12.10;99.90;;;;;;5095272;28;19925;-80
2021/10/14 04:26:45;;;;;;;;;;;12.10;99.90;;;;;;5095314;28;19964;-79
2021/10/14 04:29:13;;;;;;;;;;;12.20;99.90;;;;;;5095221;28;19942;-80
2021/10/14 04:31:40;;;;;;;;;;;12.20;99.90;;;;;;5095409;28;20374;-80
2021/10/14 04:34:07;;;;;;;;;;;12.10;99.90;;;;;;5095414;28;19925;-79
2021/10/14 04:36:33;;;;;;;;;;;12.10;99.90;;;;;;5095335;28;19934;-81
2021/10/14 04:39:00;;;;;;;;;;;12.10;99.90;;;;;;5095169;28;19930;-79
2021/10/14 04:41:27;;;;;;;;;;;12.10;99.90;;;;;;5095136;28;20276;-79
2021/10/14 04:43:54;;;;;;;;;;;12.10;99.90;;;;;;5095142;28;19935;-80
2021/10/14 04:46:22;;;;;;;;;;;12.10;99.90;;;;;;5095164;28;19939;-82
2021/10/14 04:48:49;;;;;;;;;;;12.10;99.90;;;;;;5095015;28;20362;-79
2021/10/14 04:51:16;;;;;;;;;;;12.10;99.90;;;;;;5095157;28;19935;-80
2021/10/14 04:53:43;;;;;;;;;;;12.10;99.90;;;;;;5095149;28;19934;-79
2021/10/14 04:56:09;;;;;;;;;;;12.10;99.90;;;;;;5095097;28;19935;-80
2021/10/14 04:58:36;;;;;;;;;;;12.10;99.90;;;;;;5095292;28;19935;-79
2021/10/14 05:01:03;;;;;;;;;;;12.10;99.90;;;;;;5094984;28;19925;-79
2021/10/14 05:03:31;;;;;;;;;;;12.10;99.90;;;;;;5091335;28;19935;-80
2021/10/14 05:05:58;;;;;;;;;;;12.10;99.90;;;;;;5095073;28;19924;-79
2021/10/14 05:08:25;;;;;;;;;;;12.10;99.90;;;;;;5094979;28;19935;-80
2021/10/14 05:10:54;;;;;;;;;;;12.10;99.90;;;;;;5094754;28;20256;-80
2021/10/14 05:13:21;;;;;;;;;;;12.10;99.90;;;;;;5095067;28;19928;-79
2021/10/14 05:15:48;;;;;;;;;;;12.10;99.90;;;;;;5096491;28;19924;-81
2021/10/14 05:18:15;;;;;;;;;;;12.00;99.90;;;;;;5098723;28;19924;-80
2021/10/14 05:20:43;;;;;;;;;;;12.00;99.90;;;;;;5098840;28;19974;-79
2021/10/14 05:23:10;;;;;;;;;;;12.00;99.90;;;;;;5098766;28;19934;-80
2021/10/14 05:25:37;;;;;;;;;;;12.00;99.90;;;;;;5098862;28;20252;-79
2021/10/14 05:28:04;;;;;;;;;;;12.00;99.90;;;;;;5098472;28;19924;-79
2021/10/14 05:30:31;;;;;;;;;;;12.00;99.90;;;;;;5098714;28;19934;-80
2021/10/14 05:32:59;;;;;;;;;;;12.00;99.90;;;;;;5098623;28;19950;-79
2021/10/14 05:35:25;;;;;;;;;;;12.00;99.90;;;;;;5098524;28;19934;-80
2021/10/14 05:37:54;;;;;;;;;;;12.00;99.90;;;;;;5098446;28;19924;-80
2021/10/14 05:40:21;;;;;;;;;;;12.00;99.90;;;;;;5098564;28;20329;-79
2021/10/14 05:42:47;;;;;;;;;;;12.00;99.90;;;;;;5098433;28;20363;-79
2021/10/14 05:45:14;;;;;;;;;;;12.00;99.90;;;;;;5098500;28;19931;-81
2021/10/14 05:47:41;;;;;;;;;;;12.00;99.90;;;;;;5098459;28;20017;-79
2021/10/14 05:50:08;;;;;;;;;;;12.00;99.90;;;;;;5098528;28;19935;-80
2021/10/14 05:52:35;;;;;;;;;;;12.00;99.90;;;;;;5098063;28;19924;-79
2021/10/14 05:55:03;;;;;;;;;;;12.00;99.90;;;;;;5098272;28;19932;-79
2021/10/14 05:57:30;;;;;;;;;;;11.90;99.90;;;;;;5098240;28;19924;-79
2021/10/14 05:59:57;;;;;;;;;;;12.00;99.90;;;;;;5098081;28;19930;-79
2021/10/14 06:02:24;;;;;;;;;;;12.00;99.90;;;;;;5098196;28;20275;-80
2021/10/14 06:04:51;;;;;;;;;;;12.00;99.90;;;;;;5098058;28;19931;-80
2021/10/14 06:07:18;;;;;;;;;;;12.00;99.90;;;;;;5098002;28;19924;-80
2021/10/14 06:09:45;;;;;;;;;;;12.00;99.90;;;;;;5097814;28;19924;-79
2021/10/14 06:12:13;;;;;;;;;;;12.00;99.90;;;;;;5097455;28;19987;-80
2021/10/14 06:14:40;;;;;;;;;;;12.00;99.90;;;;;;5097871;28;19924;-80
2021/10/14 06:17:07;;;;;;;;;;;12.00;99.90;;;;;;5097966;28;19924;-79
2021/10/14 06:19:34;;;;;;;;;;;12.00;99.90;;;;;;5097588;28;19924;-80
2021/10/14 06:22:00;;;;;;;;;;;12.00;99.90;;;;;;5097676;28;20353;-79
2021/10/14 06:24:27;;;;;;;;;;;12.00;99.90;;;;;;5097567;28;19924;-79
2021/10/14 06:26:55;;;;;;;;;;;12.00;99.90;;;;;;5097602;28;19924;-79
2021/10/14 06:29:24;;;;;;;;;;;12.00;99.90;;;;;;5097327;28;19978;-79
2021/10/14 06:31:51;;;;;;;;;;;12.00;99.90;;;;;;5096414;28;20260;-80
2021/10/14 06:34:18;;;;;;;;;;;12.00;99.90;;;;;;5097316;28;20264;-79
2021/10/14 06:36:45;;;;;;;;;;;12.00;99.90;;;;;;5097326;28;19924;-80
2021/10/14 06:39:12;;;;;;;;;;;12.00;99.90;;;;;;5097224;28;19939;-81
2021/10/14 06:41:39;;;;;;;;;;;12.00;99.90;;;;;;5097462;28;19924;-80
2021/10/14 06:44:07;;;;;;;;;;;12.00;99.90;;;;;;5097342;28;20260;-79
2021/10/14 06:46:36;;;;;;;;;;;12.00;99.90;;;;;;5097077;28;19924;-79
2021/10/14 06:49:03;;;;;;;;;;;12.00;99.90;;;;;;5097054;28;19985;-79
2021/10/14 06:51:30;;;;;;;;;;;12.00;99.90;;;;;;5097383;28;19924;-80
2021/10/14 06:53:57;;;;;;;;;;;12.00;99.90;;;;;;5097147;28;19924;-79
2021/10/14 06:56:24;;;;;;;;;;;12.00;99.90;;;;;;5096933;28;19924;-81
2021/10/14 06:58:51;;;;;;;;;;;12.00;99.90;;;;;;5097035;28;19934;-81
2021/10/14 07:01:17;;;;;;;;;;;12.00;99.90;;;;;;5096978;28;19924;-80
2021/10/14 07:03:46;;;;;;;;;;;12.00;99.90;;;;;;5096927;28;20349;-79
2021/10/14 07:06:13;;;;;;;;;;;12.00;99.90;;;;;;5096839;28;20026;-80
2021/10/14 07:08:39;;;;;;;;;;;12.00;99.90;;;;;;5096818;28;19934;-79
2021/10/14 07:11:06;;;;;;;;;;;12.00;99.90;;;;;;5096890;28;19934;-82
2021/10/14 07:13:33;;;;;;;;;;;12.00;99.90;;;;;;5096723;28;19924;-79
2021/10/14 07:16:00;;;;;;;;;;;12.10;99.90;;;;;;5096561;28;20279;-80
2021/10/14 07:18:27;;;;;;;;;;;12.00;99.90;;;;;;5096316;28;19924;-79
2021/10/14 07:20:55;;;;;;;;;;;12.10;99.90;;;;;;5096817;28;19934;-80
2021/10/14 07:23:22;;;;;;;;;;;12.00;99.90;;;;;;5096543;28;20267;-79
2021/10/14 07:25:49;;;;;;;;;;;12.10;99.90;;;;;;5096447;28;20001;-79
2021/10/14 07:28:16;;;;;;;;;;;12.10;99.90;;;;;;5096602;28;19924;-79
2021/10/14 07:30:43;;;;;;;;;;;12.10;99.90;;;;;;5096193;28;19929;-78
2021/10/14 07:33:09;;;;;;;;;;;12.10;99.90;;;;;;5096611;28;19924;-80
2021/10/14 07:35:36;;;;;;;;;;;12.10;99.90;;;;;;5096365;28;20336;-80
2021/10/14 07:38:09;;;;;;;;;;;12.10;99.90;;;;;;5095973;28;19924;-79
2021/10/14 07:40:38;;;;;;;;;;;12.10;99.90;;;;;;5096285;28;19985;-80
2021/10/14 07:43:05;;;;;;;;;;;12.20;99.90;;;;;;5096233;28;19924;-80
2021/10/14 07:45:32;;;;;;;;;;;12.10;99.90;;;;;;5096140;28;19928;-79
2021/10/14 07:47:59;;;;;;;;;;;12.20;99.90;;;;;;5095971;28;19924;-80
2021/10/14 07:50:26;;;;;;;;;;;12.20;99.90;;;;;;5095927;28;19934;-79
2021/10/14 07:52:53;;;;;;;;;;;12.20;99.90;;;;;;5096037;28;19928;-79
2021/10/14 07:55:21;;;;;;;;;;;12.20;99.90;;;;;;5095948;28;19924;-79
2021/10/14 07:57:48;;;;;;;;;;;12.30;99.90;;;;;;5096199;28;19924;-79
2021/10/14 08:00:15;;;;;;;;;;;12.30;99.90;;;;;;5095925;28;19924;-80
2021/10/14 08:02:41;;;;;;;;;;;12.30;99.90;;;;;;5095980;28;19934;-80
2021/10/14 08:05:09;;;;;;;;;;;12.40;99.90;;;;;;5095887;28;19986;-79
2021/10/14 08:07:36;;;;;;;;;;;12.40;99.90;;;;;;5095669;28;20015;-80
2021/10/14 08:10:03;;;;;;;;;;;12.40;99.90;;;;;;5095758;28;19939;-80
2021/10/14 08:12:31;;;;;;;;;;;12.30;99.90;;;;;;5095550;28;19924;-79
2021/10/14 08:14:58;;;;;;;;;;;12.40;99.90;;;;;;5095542;28;19935;-79
2021/10/14 08:17:25;;;;;;;;;;;12.40;99.90;;;;;;5095660;28;19924;-80
2021/10/14 08:19:52;;;;;;;;;;;12.40;99.90;;;;;;5095489;28;19925;-80
2021/10/14 08:22:19;;;;;;;;;;;12.40;99.90;;;;;;5095412;28;20345;-79
2021/10/14 08:24:46;;;;;;;;;;;12.40;99.90;;;;;;5095393;28;19924;-80
2021/10/14 08:27:13;;;;;;;;;;;12.40;99.90;;;;;;5095583;28;19924;-79
2021/10/14 08:29:41;;;;;;;;;;;12.50;99.90;;;;;;5095448;28;20018;-79
2021/10/14 08:32:08;;;;;;;;;;;12.50;99.90;;;;;;5095496;28;19924;-80
2021/10/14 08:34:35;;;;;;;;;;;12.50;99.90;;;;;;5095486;28;19924;-79
2021/10/14 08:37:02;;;;;;;;;;;12.50;99.90;;;;;;5095447;28;19940;-79
2021/10/14 08:39:29;;;;;;;;;;;12.50;99.90;;;;;;5095182;28;19924;-81
2021/10/14 08:41:55;;;;;;;;;;;12.50;99.90;;;;;;5095219;28;19924;-79
2021/10/14 08:44:25;;;;;;;;;;;12.50;99.90;;;;;;5095410;28;19924;-79
2021/10/14 08:46:54;;;;;;;;;;;12.50;99.90;;;;;;5095343;28;19924;-80
2021/10/14 08:49:21;;;;;;;;;;;12.50;99.90;;;;;;5095214;28;20310;-80
2021/10/14 08:51:48;;;;;;;;;;;12.50;99.90;;;;;;5098689;28;19935;-79
2021/10/14 08:54:15;;;;;;;;;;;12.50;99.90;;;;;;5099373;28;19924;-79
2021/10/14 08:56:42;;;;;;;;;;;12.50;99.90;;;;;;5099366;28;19924;-80
2021/10/14 08:59:09;;;;;;;;;;;12.50;99.90;;;;;;5099539;28;19989;-79
2021/10/14 09:01:36;;;;;;;;;;;12.50;99.90;;;;;;5099309;28;20336;-79
2021/10/14 09:04:14;;;;;;;;;;;12.50;99.90;;;;;;5099154;28;19924;-79
2021/10/14 09:06:41;;;;;;;;;;;12.50;99.90;;;;;;5099244;28;19977;-79
2021/10/14 09:09:08;;;;;;;;;;;12.50;99.90;;;;;;5099290;28;20037;-79
2021/10/14 09:11:35;;;;;;;;;;;12.50;99.90;;;;;;5098843;28;20382;-81
2021/10/14 09:14:02;;;;;;;;;;;12.50;99.90;;;;;;5098833;28;19938;-79
2021/10/14 09:16:30;;;;;;;;;;;12.50;99.90;;;;;;5098874;28;19924;-80
2021/10/14 09:18:57;;;;;;;;;;;12.50;99.90;;;;;;5098767;28;19931;-80
2021/10/14 09:21:26;;;;;;;;;;;12.60;99.90;;;;;;5099020;28;19939;-79
2021/10/14 09:23:53;;;;;;;;;;;12.60;99.90;;;;;;5098945;28;19942;-80
2021/10/14 09:26:30;;;;;;;;;;;12.60;99.90;;;;;;5098653;28;20397;-80
2021/10/14 09:29:06;;;;;;;;;;;12.70;99.90;;;;;;5099139;28;19924;-79
2021/10/14 09:31:45;;;;;;;;;;;12.80;99.90;;;;;;5098661;28;19925;-78
2021/10/14 09:34:21;;;;;;;;;;;12.80;99.90;;;;;;5098595;28;19924;-77
2021/10/14 09:36:49;;;;;;;;;;;12.90;99.90;;;;;;5098550;28;19924;-78
2021/10/14 09:39:16;;;;;;;;;;;12.90;99.90;;;;;;5098698;28;19931;-77
2021/10/14 09:41:43;;;;;;;;;;;13.00;99.90;;;;;;5098510;28;20275;-77
2021/10/14 09:44:13;;;;;;;;;;;13.00;99.90;;;;;;5098463;28;19924;-79
2021/10/14 09:46:40;;;;;;;;;;;13.00;99.90;;;;;;5098318;28;19924;-78
2021/10/14 09:49:07;;;;;;;;;;;13.00;99.90;;;;;;5098312;28;19924;-77
2021/10/14 09:51:34;;;;;;;;;;;13.00;99.90;;;;;;5098233;28;20364;-77
2021/10/14 09:54:03;;;;;;;;;;;13.00;99.90;;;;;;5098318;28;19928;-78
2021/10/14 09:56:29;;;;;;;;;;;13.00;99.90;;;;;;5098091;28;19923;-77
2021/10/14 09:58:58;;;;;;;;;;;13.00;99.90;;;;;;5098145;28;20362;-77
2021/10/14 10:01:25;;;;;;;;;;;13.00;99.90;;;;;;5097538;28;19928;-78
2021/10/14 10:03:52;;;;;;;;;;;13.10;99.90;;;;;;5098278;28;20260;-78
2021/10/14 10:06:22;;;;;;;;;;;13.10;99.90;;;;;;5098044;28;19924;-77
2021/10/14 10:08:49;;;;;;;;;;;13.20;99.90;;;;;;5098071;28;20348;-78
2021/10/14 10:11:17;;;;;;;;;;;13.30;99.90;;;;;;5097910;28;19924;-78
2021/10/14 10:13:45;;;;;;;;;;;13.30;99.90;;;;;;5097839;28;19932;-78
2021/10/14 10:16:12;;;;;;;;;;;13.30;99.90;;;;;;5097939;28;19924;-77
2021/10/14 10:18:40;;;;;;;;;;;13.40;99.90;;;;;;5097587;28;19935;-78
2021/10/14 10:21:09;;;;;;;;;;;13.40;99.90;;;;;;5098078;28;19934;-78
2021/10/14 10:23:45;;;;;;;;;;;13.50;99.90;;;;;;5097800;28;20260;-80
2021/10/14 10:26:27;;;;;;;;;;;13.50;99.90;;;;;;5097535;28;19977;-78
2021/10/14 10:28:55;;;;;;;;;;;13.60;99.90;;;;;;5096792;28;19950;-78
2021/10/14 10:31:22;;;;;;;;;;;13.70;99.90;;;;;;5097500;28;19938;-78
2021/10/14 10:33:50;;;;;;;;;;;13.70;99.90;;;;;;5097598;28;19924;-79
2021/10/14 10:36:31;;;;;;;;;;;13.80;99.90;;;;;;5097440;28;19931;-80
2021/10/14 10:38:59;;;;;;;;;;;13.80;99.90;;;;;;5096728;28;19924;-80
2021/10/14 10:41:25;;;;;;;;;;;13.90;99.90;;;;;;5097555;28;19978;-78
2021/10/14 10:43:59;;;;;;;;;;;14.00;99.90;;;;;;5097261;28;20251;-79
2021/10/14 10:46:27;;;;;;;;;;;14.00;99.90;;;;;;5097248;28;19996;-78
2021/10/14 10:48:54;;;;;;;;;;;14.10;99.90;;;;;;5097116;28;19939;-78
2021/10/14 10:51:26;;;;;;;;;;;14.10;99.90;;;;;;5097088;28;19935;-80
2021/10/14 10:53:53;;;;;;;;;;;14.10;99.90;;;;;;5097307;28;19924;-80
2021/10/14 10:56:31;;;;;;;;;;;14.10;99.90;;;;;;5097212;28;19946;-79
2021/10/14 10:59:00;;;;;;;;;;;14.10;99.90;;;;;;5097257;28;20350;-79
2021/10/14 11:01:29;;;;;;;;;;;14.20;99.90;;;;;;5096897;28;20366;-79
2021/10/14 11:03:58;;;;;;;;;;;14.20;99.90;;;;;;5097018;28;19924;-79
2021/10/14 11:06:28;;;;;;;;;;;14.30;99.90;;;;;;5096894;28;19928;-79
2021/10/14 11:08:58;;;;;;;;;;;14.30;99.90;;;;;;5096669;28;20379;-79
2021/10/14 11:11:25;;;;;;;;;;;14.30;99.90;;;;;;5096816;28;19924;-80
2021/10/14 11:13:52;;;;;;;;;;;14.40;99.90;;;;;;5095879;28;19924;-79
2021/10/14 11:16:21;;;;;;;;;;;14.40;99.90;;;;;;5096562;28;19942;-80
2021/10/14 11:18:48;;;;;;;;;;;14.30;99.90;;;;;;5096414;28;19935;-78
2021/10/14 11:21:25;;;;;;;;;;;14.30;99.90;;;;;;5096660;28;20252;-79
2021/10/14 11:23:53;;;;;;;;;;;14.20;99.90;;;;;;5096714;28;19935;-80
2021/10/14 11:26:27;;;;;;;;;;;14.30;99.90;;;;;;5096645;28;19932;-79
2021/10/14 11:28:56;;;;;;;;;;;14.30;99.90;;;;;;5096436;28;20031;-80
2021/10/14 11:31:29;;;;;;;;;;;14.30;99.90;;;;;;5096235;28;19924;-80
2021/10/14 11:33:57;;;;;;;;;;;14.40;99.90;;;;;;5096562;28;20012;-80
2021/10/14 11:36:28;;;;;;;;;;;14.40;99.90;;;;;;5096443;28;19932;-78
2021/10/14 11:38:58;;;;;;;;;;;14.50;99.90;;;;;;5096119;28;20045;-79
2021/10/14 11:41:25;;;;;;;;;;;14.50;99.90;;;;;;5095797;28;19924;-80
2021/10/14 11:43:56;;;;;;;;;;;14.50;99.90;;;;;;5095649;28;20375;-80
2021/10/14 11:46:23;;;;;;;;;;;14.50;99.90;;;;;;5095980;28;19924;-80
2021/10/14 11:48:51;;;;;;;;;;;14.50;99.90;;;;;;5095237;28;19934;-80
2021/10/14 11:51:19;;;;;;;;;;;14.50;99.90;;;;;;5096001;28;19924;-80
2021/10/14 11:53:54;;;;;;;;;;;14.50;99.90;;;;;;5095840;28;20275;-79
2021/10/14 11:56:23;;;;;;;;;;;14.40;99.90;;;;;;5095798;28;19924;-79
2021/10/14 11:58:51;;;;;;;;;;;14.40;99.90;;;;;;5096107;28;19974;-80
2021/10/14 12:01:19;;;;;;;;;;;14.40;99.90;;;;;;5095872;28;19924;-79
2021/10/14 12:03:51;;;;;;;;;;;14.40;99.90;;;;;;5095308;28;20222;-80
2021/10/14 12:06:24;;;;;;;;;;;14.40;99.90;;;;;;5095695;28;19934;-79
2021/10/14 12:08:52;;;;;;;;;;;14.40;99.90;;;;;;5095626;28;19932;-80
2021/10/14 12:11:22;;;;;;;;;;;14.50;99.90;;;;;;5095532;28;19931;-80
2021/10/14 12:14:00;;;;;;;;;;;14.50;99.90;;;;;;5095956;28;19928;-79
2021/10/14 12:16:39;;;;;;;;;;;14.60;99.90;;;;;;5095638;28;19924;-79
2021/10/14 12:19:14;;;;;;;;;;;14.70;99.90;;;;;;5095151;28;19931;-80
2021/10/14 12:21:43;;;;;;;;;;;14.80;99.90;;;;;;5095519;28;20336;-79
2021/10/14 12:24:13;;;;;;;;;;;14.80;99.90;;;;;;5095484;28;19925;-79
2021/10/14 12:26:41;;;;;;;;;;;14.90;99.90;;;;;;5095634;28;20015;-79
2021/10/14 12:29:25;;;;;;;;;;;14.90;99.90;;;;;;5094145;28;20336;-80
2021/10/14 12:32:07;;;;;;;;;;;14.90;99.90;;;;;;5095723;28;20341;-80
2021/10/14 12:34:55;;;;;;;;;;;14.80;99.90;;;;;;5092273;28;19925;-79
2021/10/14 12:37:30;;;;;;;;;;;14.80;99.90;;;;;;5095580;28;20015;-80
2021/10/14 12:40:28;;;;;;;;;;;14.80;99.90;;;;;;5095627;28;19935;-78
2021/10/14 12:43:01;;;;;;;;;;;14.70;99.90;;;;;;5013785;28;19936;-80
2021/10/14 12:45:37;;;;;;;;;;;14.70;99.90;;;;;;5013613;28;20321;-80
2021/10/14 12:48:16;;;;;;;;;;;14.60;99.90;;;;;;5013815;28;20361;-79
2021/10/14 12:51:05;;;;;;;;;;;14.60;99.90;;;;;;5013710;28;19925;-80
2021/10/14 12:53:44;;;;;;;;;;;14.50;99.90;;;;;;5013513;28;19965;-79
2021/10/14 12:56:14;;;;;;;;;;;14.50;99.90;;;;;;5013077;28;19926;-79
2021/10/14 12:58:42;;;;;;;;;;;14.60;99.90;;;;;;5013823;28;20037;-80
2021/10/14 13:01:12;;;;;;;;;;;14.60;99.90;;;;;;5013750;28;19983;-80
2021/10/14 13:03:40;;;;;;;;;;;14.60;99.90;;;;;;5013526;28;20338;-80
2021/10/14 13:06:25;;;;;;;;;;;14.60;99.90;;;;;;5013583;28;19925;-79
2021/10/14 13:08:58;;;;;;;;;;;14.70;99.90;;;;;;5013598;28;19992;-80
2021/10/14 13:11:30;;;;;;;;;;;14.70;99.90;;;;;;5013294;28;19951;-80
2021/10/14 13:14:01;;;;;;;;;;;14.70;99.90;;;;;;5013033;28;19926;-80
2021/10/14 13:16:32;;;;;;;;;;;14.70;99.90;;;;;;5013401;28;19925;-80
2021/10/14 13:19:00;;;;;;;;;;;14.80;99.90;;;;;;5066361;28;19931;-79
2021/10/14 13:21:29;;;;;;;;;;;14.80;99.90;;;;;;5095004;28;19924;-79
2021/10/14 13:23:57;;;;;;;;;;;14.80;99.90;;;;;;5094600;28;20332;-80
2021/10/14 13:26:27;;;;;;;;;;;14.80;99.90;;;;;;5095084;28;19936;-80
2021/10/14 13:28:56;;;;;;;;;;;14.90;99.90;;;;;;5095131;28;19924;-80
2021/10/14 13:31:24;;;;;;;;;;;14.90;99.90;;;;;;5094274;28;19924;-79
2021/10/14 13:33:52;;;;;;;;;;;14.90;99.90;;;;;;5094794;28;19923;-80
2021/10/14 13:36:21;;;;;;;;;;;14.90;99.90;;;;;;5095450;28;19924;-80
2021/10/14 13:38:54;;;;;;;;;;;14.80;99.90;;;;;;5098740;28;20018;-79
2021/10/14 13:41:23;;;;;;;;;;;14.80;99.90;;;;;;5098694;28;19924;-80
2021/10/14 13:43:56;;;;;;;;;;;14.70;99.90;;;;;;5098694;28;19924;-79
2021/10/14 13:46:23;;;;;;;;;;;14.70;99.90;;;;;;5098735;28;19924;-79
2021/10/14 13:48:51;;;;;;;;;;;14.70;99.90;;;;;;5098264;28;20302;-79
2021/10/14 13:51:21;;;;;;;;;;;14.70;99.90;;;;;;5098337;28;19931;-79
2021/10/14 13:53:50;;;;;;;;;;;14.60;99.90;;;;;;5097931;28;19924;-79
2021/10/14 13:56:16;;;;;;;;;;;14.60;99.90;;;;;;5098328;28;19931;-79
2021/10/14 13:58:45;;;;;;;;;;;14.60;99.90;;;;;;5098132;28;19935;-78
2021/10/14 14:01:13;;;;;;;;;;;14.60;99.90;;;;;;5098201;28;19928;-80
2021/10/14 14:03:43;;;;;;;;;;;14.50;99.90;;;;;;5097991;28;19924;-79
2021/10/14 14:06:11;;;;;;;;;;;14.60;99.90;;;;;;5098409;28;19989;-79
2021/10/14 14:08:40;;;;;;;;;;;14.60;99.90;;;;;;5098269;28;19934;-79
2021/10/14 14:11:18;;;;;;;;;;;14.60;99.90;;;;;;5098052;28;19924;-78
2021/10/14 14:13:46;;;;;;;;;;;14.60;99.90;;;;;;5097879;28;19931;-79
2021/10/14 14:16:14;;;;;;;;;;;14.50;99.90;;;;;;5097779;28;20371;-77
2021/10/14 14:18:44;;;;;;;;;;;14.60;99.90;;;;;;5097565;28;20307;-78
2021/10/14 14:21:14;;;;;;;;;;;14.60;99.90;;;;;;5097813;28;19935;-79
2021/10/14 14:23:42;;;;;;;;;;;14.60;99.90;;;;;;5097803;28;19993;-79